Time;durP1;ratioP1;P1;durP2;ratioP2;P2;SDS_P1;SDS_P2;PMS_P1;PMS_P2;Temp;Humidity;BMP_temperature;BMP_pressure;BME280_temperature;BME280_humidity;BME280_pressure;Samples;Min_cycle;Max_cycle;Signal;HPM_P1;HPM_P2
2022/01/30 14:09:38;;;;;;;87.85;5.50;;;;;;;;;;5067602;28;20376;-33
2022/01/30 14:12:07;;;;;;;62.72;3.88;;;;;;;;;;5059427;28;20111;-33
2022/01/30 14:14:36;;;;;;;66.75;5.90;;;;;;;;;;5038924;28;20029;-33
2022/01/30 14:17:03;;;;;;;31.88;2.10;;;;;;;;;;5028710;28;20025;-33
2022/01/30 14:19:31;;;;;;;51.50;3.17;;;;;;;;;;5046295;28;20108;-33
2022/01/30 14:22:11;;;;;;;99.40;5.53;;;;;;;;;;5050008;28;20026;-33
2022/01/30 14:24:45;;;;;;;127.88;9.48;;;;;;;;;;5049863;28;20464;-33
2022/01/30 14:27:11;;;;;;;204.00;11.85;;;;;;;;;;5049991;28;20025;-33
2022/01/30 14:29:36;;;;;;;66.68;4.35;;;;;;;;;;5048815;28;20075;-33
2022/01/30 14:32:09;;;;;;;77.63;11.43;;;;;;;;;;5048555;28;20476;-33
2022/01/30 14:34:34;;;;;;;52.03;3.38;;;;;;;;;;5050079;28;20041;-33
2022/01/30 14:37:01;;;;;;;49.35;4.88;;;;;;;;;;5048547;28;20025;-33
2022/01/30 14:39:31;;;;;;;99.13;6.70;;;;;;;;;;5048702;28;20021;-33
2022/01/30 14:41:58;;;;;;;277.48;18.65;;;;;;;;;;5049956;28;20029;-33
2022/01/30 14:44:23;;;;;;;107.53;6.40;;;;;;;;;;5049747;28;20022;-33
2022/01/30 14:46:48;;;;;;;57.35;4.00;;;;;;;;;;5048473;28;20075;-34
2022/01/30 14:49:14;;;;;;;37.15;4.50;;;;;;;;;;5049597;28;20036;-34
2022/01/30 14:51:39;;;;;;;24.08;2.33;;;;;;;;;;5048121;28;20024;-35
2022/01/30 14:54:05;;;;;;;25.73;3.15;;;;;;;;;;5049823;28;20452;-34
2022/01/30 14:56:30;;;;;;;36.97;3.35;;;;;;;;;;5049802;28;20456;-34
2022/01/30 14:58:56;;;;;;;36.50;4.10;;;;;;;;;;5048237;28;20102;-34
2022/01/30 15:01:21;;;;;;;40.85;3.10;;;;;;;;;;5049377;28;20021;-34
2022/01/30 15:03:46;;;;;;;36.53;3.67;;;;;;;;;;5049527;28;20025;-34
2022/01/30 15:06:11;;;;;;;36.03;3.17;;;;;;;;;;5047881;28;20017;-34
2022/01/30 15:08:37;;;;;;;46.78;4.03;;;;;;;;;;5047762;28;20057;-34
2022/01/30 15:11:02;;;;;;;40.90;3.08;;;;;;;;;;5049353;28;20349;-34
2022/01/30 15:13:27;;;;;;;25.00;2.17;;;;;;;;;;5049266;28;20025;-34
2022/01/30 15:15:55;;;;;;;30.98;2.90;;;;;;;;;;5049553;28;20025;-34
2022/01/30 15:18:24;;;;;;;33.25;2.67;;;;;;;;;;5047802;28;20128;-34
2022/01/30 15:20:50;;;;;;;39.45;3.95;;;;;;;;;;5032442;28;20029;-34
2022/01/30 15:23:15;;;;;;;38.53;2.97;;;;;;;;;;5032363;28;20129;-35
2022/01/30 15:25:41;;;;;;;24.88;2.45;;;;;;;;;;5023080;28;20034;-34
2022/01/30 15:28:06;;;;;;;38.33;5.10;;;;;;;;;;5014130;28;20033;-34
2022/01/30 15:30:32;;;;;;;32.05;3.17;;;;;;;;;;5014476;28;20026;-34
2022/01/30 15:32:57;;;;;;;33.90;3.17;;;;;;;;;;5015722;28;20030;-34
2022/01/30 15:35:24;;;;;;;19.75;1.75;;;;;;;;;;5014343;28;20026;-35
2022/01/30 15:37:49;;;;;;;33.13;4.45;;;;;;;;;;5014323;28;20036;-35
2022/01/30 15:40:15;;;;;;;38.38;3.92;;;;;;;;;;5015804;28;20384;-35
2022/01/30 15:42:40;;;;;;;34.15;6.00;;;;;;;;;;5014391;28;20384;-35
2022/01/30 15:50:16;;;;;;;24.80;3.40;;;;;;;;;;5015373;28;20029;-34
2022/01/30 15:52:41;;;;;;;83.43;4.50;;;;;;;;;;5015547;28;20014;-34
2022/01/30 15:55:06;;;;;;;37.28;3.25;;;;;;;;;;5015201;28;20018;-34
2022/01/30 15:57:32;;;;;;;66.07;5.60;;;;;;;;;;5015309;28;20354;-35
2022/01/30 15:59:57;;;;;;;21.45;2.17;;;;;;;;;;5015535;28;20014;-34
2022/01/30 16:02:22;;;;;;;36.75;2.63;;;;;;;;;;5015386;28;20022;-34
2022/01/30 16:04:53;;;;;;;25.38;2.75;;;;;;;;;;5015008;28;20042;-34
2022/01/30 16:07:18;;;;;;;25.73;2.63;;;;;;;;;;5014952;28;20029;-34
2022/01/30 16:09:46;;;;;;;25.95;1.80;;;;;;;;;;5014017;28;20038;-34
2022/01/30 16:17:21;;;;;;;20.48;2.90;;;;;;;;;;5014961;28;20036;-34
2022/01/30 16:19:47;;;;;;;10.50;1.98;;;;;;;;;;5013830;28;20022;-34
2022/01/30 16:22:12;;;;;;;18.35;2.20;;;;;;;;;;5015034;28;20040;-34
2022/01/30 16:24:37;;;;;;;18.60;2.75;;;;;;;;;;5013830;28;20062;-35
2022/01/30 16:27:03;;;;;;;21.05;2.05;;;;;;;;;;5014858;28;20473;-34
2022/01/30 16:29:28;;;;;;;17.30;2.80;;;;;;;;;;5015001;28;20448;-34
2022/01/30 16:31:54;;;;;;;18.63;1.83;;;;;;;;;;5013598;28;20376;-34
2022/01/30 16:34:19;;;;;;;12.75;2.40;;;;;;;;;;5013740;28;20029;-34
2022/01/30 16:36:44;;;;;;;39.95;6.13;;;;;;;;;;5014532;28;20087;-34
2022/01/30 16:39:10;;;;;;;18.05;1.90;;;;;;;;;;5014653;28;20032;-34
2022/01/30 16:43:57;;;;;;;15.60;2.03;;;;;;;;;;5070362;28;20376;-33
2022/01/30 16:48:52;;;;;;;13.90;1.70;;;;;;;;;;5070097;28;20024;-33
2022/01/30 16:51:18;;;;;;;13.38;1.83;;;;;;;;;;5070734;28;20086;-33
2022/01/30 16:53:43;;;;;;;24.23;2.65;;;;;;;;;;5070185;28;20021;-33
2022/01/30 16:56:10;;;;;;;21.00;2.30;;;;;;;;;;5063440;28;20020;-33
2022/01/30 16:58:35;;;;;;;18.52;2.40;;;;;;;;;;5069042;28;20387;-33
2022/01/30 17:01:00;;;;;;;27.63;7.38;;;;;;;;;;5068947;28;20016;-35
2022/01/30 17:03:26;;;;;;;20.38;3.25;;;;;;;;;;5067396;28;20037;-33
2022/01/30 17:05:51;;;;;;;17.23;2.63;;;;;;;;;;5069113;28;20466;-33
2022/01/30 17:08:18;;;;;;;18.10;4.25;;;;;;;;;;5067699;28;20036;-33
2022/01/30 17:10:44;;;;;;;21.90;2.22;;;;;;;;;;5068787;28;20360;-33
2022/01/30 17:13:10;;;;;;;33.05;3.20;;;;;;;;;;5069577;28;20112;-33
2022/01/30 17:15:40;;;;;;;16.38;2.40;;;;;;;;;;5067357;28;20443;-33
2022/01/30 17:18:07;;;;;;;24.25;3.08;;;;;;;;;;5068361;28;20024;-33
2022/01/30 17:20:33;;;;;;;36.40;4.18;;;;;;;;;;5067425;28;20103;-33
2022/01/30 17:22:58;;;;;;;34.40;4.43;;;;;;;;;;5069528;28;20053;-33
2022/01/30 17:25:23;;;;;;;38.47;2.63;;;;;;;;;;5067269;28;20436;-33
2022/01/30 17:27:48;;;;;;;40.78;3.65;;;;;;;;;;5067406;28;20015;-33
2022/01/30 17:30:14;;;;;;;60.60;11.88;;;;;;;;;;5068690;28;20016;-34
2022/01/30 17:32:39;;;;;;;41.22;3.30;;;;;;;;;;5068252;28;20074;-35
2022/01/30 17:35:05;;;;;;;62.22;6.82;;;;;;;;;;5067178;28;20020;-34
2022/01/30 17:37:30;;;;;;;68.85;4.60;;;;;;;;;;5068382;28;20035;-34
2022/01/30 17:39:55;;;;;;;37.63;6.53;;;;;;;;;;5067682;28;20052;-35
2022/01/30 17:42:21;;;;;;;51.28;3.15;;;;;;;;;;5049569;28;20053;-34
2022/01/30 17:44:46;;;;;;;34.55;3.08;;;;;;;;;;5048264;28;20029;-34
2022/01/30 17:47:11;;;;;;;43.70;4.82;;;;;;;;;;5047959;28;20021;-36
2022/01/30 17:49:37;;;;;;;43.00;3.28;;;;;;;;;;5048894;28;20018;-35
2022/01/30 17:52:03;;;;;;;35.88;4.93;;;;;;;;;;5048892;28;20106;-34
2022/01/30 17:54:29;;;;;;;59.83;5.97;;;;;;;;;;5041729;28;20021;-34
2022/01/30 17:56:54;;;;;;;44.00;8.45;;;;;;;;;;5054172;28;20057;-34
2022/01/30 17:59:20;;;;;;;34.50;3.85;;;;;;;;;;5053687;28;20025;-45
2022/01/30 18:01:45;;;;;;;39.00;4.45;;;;;;;;;;5054297;28;20028;-34
2022/01/30 18:04:10;;;;;;;48.55;3.95;;;;;;;;;;5054453;28;20021;-34
2022/01/30 18:06:36;;;;;;;41.53;4.15;;;;;;;;;;5052716;28;20025;-34
2022/01/30 18:09:02;;;;;;;19.20;2.60;;;;;;;;;;5053105;28;20078;-34
2022/01/30 18:11:29;;;;;;;44.92;3.42;;;;;;;;;;5052286;28;20017;-34
2022/01/30 18:13:59;;;;;;;31.83;3.20;;;;;;;;;;5052668;28;20032;-34
2022/01/30 18:16:24;;;;;;;28.02;3.50;;;;;;;;;;5053111;28;20083;-34
2022/01/30 18:18:49;;;;;;;15.57;2.53;;;;;;;;;;5054063;28;20460;-33
2022/01/30 18:21:14;;;;;;;28.58;3.30;;;;;;;;;;5051692;28;20513;-34
2022/01/30 18:23:40;;;;;;;28.95;2.95;;;;;;;;;;5054442;28;20044;-33
2022/01/30 18:26:05;;;;;;;15.20;2.83;;;;;;;;;;5054000;28;20100;-33
2022/01/30 18:28:31;;;;;;;16.25;2.80;;;;;;;;;;5052090;28;20021;-33
2022/01/30 18:30:56;;;;;;;54.95;9.55;;;;;;;;;;5052155;28;20078;-35
2022/01/30 18:33:23;;;;;;;49.47;7.93;;;;;;;;;;5052461;28;20394;-33
2022/01/30 18:35:48;;;;;;;48.30;6.38;;;;;;;;;;5054329;28;20025;-34
2022/01/30 18:38:33;;;;;;;60.85;5.03;;;;;;;;;;5052722;28;20044;-36
2022/01/30 18:41:08;;;;;;;20.20;2.88;;;;;;;;;;5054475;28;20021;-34
2022/01/30 18:43:34;;;;;;;29.95;3.35;;;;;;;;;;5052133;28;20135;-37
2022/01/30 18:46:00;;;;;;;30.50;3.13;;;;;;;;;;5054181;28;20017;-34
2022/01/30 18:48:25;;;;;;;17.38;2.72;;;;;;;;;;5054507;28;20103;-35
2022/01/30 18:50:50;;;;;;;26.35;3.53;;;;;;;;;;5042635;28;20021;-35
2022/01/30 18:53:17;;;;;;;26.33;2.63;;;;;;;;;;5034190;28;20048;-34
2022/01/30 18:55:43;;;;;;;21.85;2.55;;;;;;;;;;5033564;28;20025;-34
2022/01/30 18:58:12;;;;;;;22.58;3.05;;;;;;;;;;5034122;28;20093;-35
2022/01/30 19:00:37;;;;;;;20.20;2.60;;;;;;;;;;5032226;28;20124;-35
2022/01/30 19:03:03;;;;;;;31.05;3.10;;;;;;;;;;5033692;28;20113;-34
2022/01/30 19:05:28;;;;;;;34.63;2.80;;;;;;;;;;5033199;28;20052;-35
2022/01/30 19:07:53;;;;;;;29.40;3.90;;;;;;;;;;5033396;28;20453;-34
2022/01/30 19:10:18;;;;;;;27.08;2.80;;;;;;;;;;5034082;28;20025;-34
2022/01/30 19:12:44;;;;;;;22.25;2.58;;;;;;;;;;5033935;28;20057;-35
2022/01/30 19:15:09;;;;;;;26.50;3.83;;;;;;;;;;5032400;28;20036;-46
2022/01/30 19:17:34;;;;;;;31.73;3.25;;;;;;;;;;5033575;28;20025;-36
2022/01/30 19:19:59;;;;;;;19.50;2.40;;;;;;;;;;5033807;28;20108;-34
2022/01/30 19:22:25;;;;;;;83.97;18.17;;;;;;;;;;5033910;28;20083;-37
2022/01/30 19:24:50;;;;;;;66.25;18.17;;;;;;;;;;5031995;28;20448;-34
2022/01/30 19:27:16;;;;;;;26.83;3.00;;;;;;;;;;5033394;28;20028;-35
2022/01/30 19:29:43;;;;;;;21.58;2.83;;;;;;;;;;5030950;28;20022;-34
2022/01/30 19:32:09;;;;;;;31.95;4.60;;;;;;;;;;5032485;28;20044;-34
2022/01/30 19:34:34;;;;;;;18.63;2.67;;;;;;;;;;5033428;28;20483;-35
2022/01/30 19:37:00;;;;;;;27.65;3.78;;;;;;;;;;5033588;28;20079;-34
2022/01/30 19:39:25;;;;;;;23.23;2.97;;;;;;;;;;5032308;28;20017;-34
2022/01/30 19:41:51;;;;;;;19.55;2.88;;;;;;;;;;5032455;28;20458;-34
2022/01/30 19:44:16;;;;;;;21.27;3.80;;;;;;;;;;5033115;28;20037;-34
2022/01/30 19:46:45;;;;;;;16.45;3.30;;;;;;;;;;5033484;28;20018;-34
2022/01/30 19:49:10;;;;;;;28.00;3.30;;;;;;;;;;5033224;28;20017;-35
2022/01/30 19:51:35;;;;;;;25.83;4.30;;;;;;;;;;5031235;28;20247;-35
2022/01/30 19:54:01;;;;;;;46.83;7.30;;;;;;;;;;5032547;28;20022;-34
2022/01/30 19:56:33;;;;;;;30.17;3.80;;;;;;;;;;5033558;28;20101;-34
2022/01/30 19:58:58;;;;;;;26.95;6.57;;;;;;;;;;5033319;28;20368;-35
2022/01/30 20:01:24;;;;;;;67.97;12.90;;;;;;;;;;5032322;28;20107;-34
2022/01/30 20:03:49;;;;;;;31.67;5.93;;;;;;;;;;5033548;28;20438;-34
2022/01/30 20:06:15;;;;;;;23.02;3.35;;;;;;;;;;5033526;28;20480;-34
2022/01/30 20:08:40;;;;;;;34.83;3.40;;;;;;;;;;5033250;28;20369;-34
2022/01/30 20:11:06;;;;;;;28.13;3.28;;;;;;;;;;5033396;28;20108;-34
2022/01/30 20:13:31;;;;;;;43.42;6.35;;;;;;;;;;5031858;28;20022;-34
2022/01/30 20:15:57;;;;;;;23.95;4.32;;;;;;;;;;5033099;28;20022;-38
2022/01/30 20:18:23;;;;;;;29.70;3.15;;;;;;;;;;5033161;28;20499;-34
2022/01/30 20:20:48;;;;;;;35.92;3.28;;;;;;;;;;5033148;28;20053;-34
2022/01/30 20:23:14;;;;;;;19.85;3.17;;;;;;;;;;5033169;28;20037;-34
2022/01/30 20:25:40;;;;;;;23.08;2.70;;;;;;;;;;5031880;28;20026;-35
2022/01/30 20:28:06;;;;;;;47.85;3.97;;;;;;;;;;5031751;28;20017;-34
2022/01/30 20:30:31;;;;;;;53.65;4.40;;;;;;;;;;5033362;28;20071;-34
2022/01/30 20:32:56;;;;;;;51.35;5.65;;;;;;;;;;5031831;28;20026;-34
2022/01/30 20:35:22;;;;;;;23.45;3.53;;;;;;;;;;5033123;28;20032;-34
2022/01/30 20:37:47;;;;;;;27.25;3.50;;;;;;;;;;5033041;28;20379;-35
2022/01/30 20:40:12;;;;;;;40.45;3.15;;;;;;;;;;5032899;28;20077;-34
2022/01/30 20:42:39;;;;;;;33.25;4.90;;;;;;;;;;5032878;28;20064;-35
2022/01/30 20:45:05;;;;;;;17.10;3.00;;;;;;;;;;5031402;28;20438;-34
2022/01/30 20:47:31;;;;;;;24.75;4.10;;;;;;;;;;5032975;28;20025;-34
2022/01/30 20:49:58;;;;;;;23.30;2.80;;;;;;;;;;5031732;28;20037;-34
2022/01/30 20:52:23;;;;;;;35.75;3.33;;;;;;;;;;5032597;28;20021;-34
2022/01/30 20:54:52;;;;;;;26.85;4.50;;;;;;;;;;5032258;28;20460;-34
2022/01/30 20:57:19;;;;;;;28.50;4.00;;;;;;;;;;5032138;28;20025;-37
2022/01/30 20:59:44;;;;;;;26.35;3.03;;;;;;;;;;5030681;28;20078;-34
2022/01/30 21:02:09;;;;;;;14.88;2.70;;;;;;;;;;5032290;28;20041;-34
2022/01/30 21:04:34;;;;;;;21.08;2.88;;;;;;;;;;5032293;28;20365;-35
2022/01/30 21:07:00;;;;;;;30.77;3.85;;;;;;;;;;5032300;28;20025;-35
2022/01/30 21:09:28;;;;;;;19.50;3.08;;;;;;;;;;5030215;28;20053;-34
2022/01/30 21:11:55;;;;;;;20.38;3.15;;;;;;;;;;5032332;28;20035;-34
2022/01/30 21:14:22;;;;;;;25.45;3.92;;;;;;;;;;5031972;28;20495;-35
2022/01/30 21:16:47;;;;;;;22.67;4.32;;;;;;;;;;5030892;28;20419;-34
2022/01/30 21:19:14;;;;;;;16.10;2.65;;;;;;;;;;5032238;28;20071;-34
2022/01/30 21:21:39;;;;;;;38.17;4.57;;;;;;;;;;5031245;28;20688;-35
2022/01/30 21:24:05;;;;;;;18.38;2.42;;;;;;;;;;5032261;28;20017;-34
2022/01/30 21:26:34;;;;;;;28.75;3.00;;;;;;;;;;5030641;28;20022;-35
2022/01/30 21:29:00;;;;;;;14.25;2.35;;;;;;;;;;5033329;28;20054;-35
2022/01/30 21:31:25;;;;;;;28.08;3.95;;;;;;;;;;5035864;28;20060;-35
2022/01/30 21:33:51;;;;;;;35.72;2.65;;;;;;;;;;5034638;28;20033;-34
2022/01/30 21:36:16;;;;;;;54.58;2.92;;;;;;;;;;5034555;28;20022;-34
2022/01/30 21:38:42;;;;;;;31.95;3.60;;;;;;;;;;5034048;28;20028;-34
2022/01/30 21:41:07;;;;;;;26.88;3.70;;;;;;;;;;5035594;28;20029;-34
2022/01/30 21:43:33;;;;;;;25.85;3.13;;;;;;;;;;5034026;28;20053;-34
2022/01/30 21:45:58;;;;;;;36.47;4.22;;;;;;;;;;5036112;28;20071;-34
2022/01/30 21:48:23;;;;;;;16.05;2.88;;;;;;;;;;5036065;28;20064;-34
2022/01/30 21:50:49;;;;;;;27.27;3.38;;;;;;;;;;5036190;28;20021;-35
2022/01/30 21:53:14;;;;;;;21.63;3.72;;;;;;;;;;5035965;28;20017;-34
2022/01/30 21:55:41;;;;;;;30.52;3.13;;;;;;;;;;5035839;28;20034;-34
2022/01/30 21:58:06;;;;;;;42.00;3.00;;;;;;;;;;5035521;28;20021;-34
2022/01/30 22:00:31;;;;;;;25.15;3.85;;;;;;;;;;5033989;28;20021;-34
2022/01/30 22:02:57;;;;;;;25.70;2.70;;;;;;;;;;5035355;28;20044;-34
2022/01/30 22:05:22;;;;;;;26.55;2.88;;;;;;;;;;5035624;28;20067;-34
2022/01/30 22:07:47;;;;;;;30.40;3.45;;;;;;;;;;5034324;28;20025;-35
2022/01/30 22:10:15;;;;;;;32.13;3.33;;;;;;;;;;5034325;28;20028;-34
2022/01/30 22:12:49;;;;;;;63.15;8.23;;;;;;;;;;5034096;28;20029;-34
2022/01/30 22:15:19;;;;;;;34.30;5.35;;;;;;;;;;5035266;28;20018;-34
2022/01/30 22:17:44;;;;;;;32.05;3.85;;;;;;;;;;5034947;28;20144;-34
2022/01/30 22:20:10;;;;;;;30.77;3.78;;;;;;;;;;5034772;28;20431;-34
2022/01/30 22:22:36;;;;;;;28.55;3.10;;;;;;;;;;5033634;28;20033;-35
2022/01/30 22:25:01;;;;;;;22.45;2.72;;;;;;;;;;5033601;28;20034;-34
2022/01/30 22:27:27;;;;;;;17.70;2.83;;;;;;;;;;5034171;28;20032;-35
2022/01/30 22:29:53;;;;;;;25.05;2.70;;;;;;;;;;5034954;28;20026;-34
2022/01/30 22:32:20;;;;;;;17.40;2.70;;;;;;;;;;5033672;28;20632;-35
2022/01/30 22:34:45;;;;;;;21.48;2.78;;;;;;;;;;5033224;28;20026;-34
2022/01/30 22:37:11;;;;;;;12.48;2.33;;;;;;;;;;5034395;28;20388;-35
2022/01/30 22:39:37;;;;;;;15.70;2.50;;;;;;;;;;5034444;28;20038;-35
2022/01/30 22:42:02;;;;;;;20.45;3.20;;;;;;;;;;5034321;28;20072;-34
2022/01/30 22:44:27;;;;;;;14.32;2.13;;;;;;;;;;5033203;28;20027;-34
2022/01/30 22:46:53;;;;;;;14.27;2.30;;;;;;;;;;5032650;28;20029;-34
2022/01/30 22:49:18;;;;;;;13.93;2.55;;;;;;;;;;5035216;28;20472;-34
2022/01/30 22:51:43;;;;;;;16.17;3.63;;;;;;;;;;5033595;28;20112;-34
2022/01/30 22:54:08;;;;;;;18.13;2.97;;;;;;;;;;5034725;28;20021;-34
2022/01/30 22:56:34;;;;;;;10.70;2.85;;;;;;;;;;5034464;28;20025;-34
2022/01/30 22:58:59;;;;;;;38.00;8.68;;;;;;;;;;5034830;28;20026;-34
2022/01/30 23:01:25;;;;;;;17.45;3.50;;;;;;;;;;5033393;28;20045;-34
2022/01/30 23:03:50;;;;;;;16.27;2.42;;;;;;;;;;5033072;28;20041;-34
2022/01/30 23:06:15;;;;;;;13.45;2.33;;;;;;;;;;5034598;28;20024;-34
2022/01/30 23:08:41;;;;;;;19.58;3.10;;;;;;;;;;5033148;28;20025;-34
2022/01/30 23:11:06;;;;;;;21.38;2.78;;;;;;;;;;5034290;28;20049;-35
2022/01/30 23:13:31;;;;;;;20.23;3.97;;;;;;;;;;5032932;28;20052;-34
2022/01/30 23:15:57;;;;;;;15.88;3.47;;;;;;;;;;5033142;28;20474;-34
2022/01/30 23:18:22;;;;;;;17.52;3.08;;;;;;;;;;5033215;28;20082;-35
2022/01/30 23:20:47;;;;;;;17.58;2.75;;;;;;;;;;5034246;28;20018;-35
2022/01/30 23:23:13;;;;;;;17.02;3.45;;;;;;;;;;5034128;28;20033;-34
2022/01/30 23:25:38;;;;;;;14.90;2.53;;;;;;;;;;5032948;28;20025;-35
2022/01/30 23:28:03;;;;;;;17.77;3.00;;;;;;;;;;5033932;28;20460;-34
2022/01/30 23:30:30;;;;;;;10.27;2.15;;;;;;;;;;5034184;28;20486;-34
2022/01/30 23:32:55;;;;;;;18.55;3.25;;;;;;;;;;5034061;28;20029;-35
2022/01/30 23:35:21;;;;;;;17.50;4.68;;;;;;;;;;5032626;28;20038;-35
2022/01/30 23:37:50;;;;;;;24.85;4.53;;;;;;;;;;5033803;28;20029;-34
2022/01/30 23:40:15;;;;;;;;;;;;;;;;;;5032978;28;20500;-34
2022/01/30 23:42:42;;;;;;;19.88;3.22;;;;;;;;;;5033708;28;19994;-34
2022/01/30 23:45:12;;;;;;;19.75;3.15;;;;;;;;;;5033821;28;20041;-34
2022/01/30 23:47:38;;;;;;;17.40;4.03;;;;;;;;;;5032605;28;20044;-34
2022/01/30 23:50:04;;;;;;;19.38;2.42;;;;;;;;;;5032460;28;20091;-35
2022/01/30 23:52:29;;;;;;;20.60;3.45;;;;;;;;;;5031881;28;20468;-34
2022/01/30 23:54:54;;;;;;;21.92;3.75;;;;;;;;;;5033523;28;20040;-35
2022/01/30 23:57:20;;;;;;;16.70;2.65;;;;;;;;;;5033547;28;20032;-35
2022/01/30 23:59:45;;;;;;;17.23;2.70;;;;;;;;;;5033582;28;20025;-35
